Terminal Aerodrome Forecast
Issued by NWS Sterling, VA

Current Version | Previous Version | Graphics & Text | Print | Product List | Glossary On
Versions: 1 2 3 4 5 6 7 8 9 10 11 12 13 14 15 16 17 18 19 20 21 22 23
000
FTUS41 KLWX 280500
TAFDCA
TAF
KDCA 280520Z 2806/2906 22006KT P6SM VCTS SCT050CB BKN090
     FM281000 26010KT P6SM SCT050 BKN130
     FM281500 29013G22KT P6SM SCT050 BKN090
     FM282300 30011KT P6SM BKN050
     FM290500 33007KT P6SM BKN090=

USA.gov is the U.S. government's official web portal to all federal, state and local government web resources and services.